createdAt,value
2019-04-07T00:01:51.432Z,40.00
2019-04-07T00:04:20.342Z,43.80
2019-04-07T00:06:48.960Z,43.97
2019-04-07T00:09:17.651Z,39.97
2019-04-07T00:11:46.167Z,43.13
2019-04-07T00:14:14.666Z,44.27
2019-04-07T00:16:44.180Z,44.37
2019-04-07T00:19:12.646Z,45.57
2019-04-07T00:21:41.152Z,44.63
2019-04-07T00:24:10.237Z,43.53
2019-04-07T00:26:39.382Z,43.20
2019-04-07T00:29:07.926Z,40.73
2019-04-07T00:31:36.399Z,43.73
2019-04-07T00:34:05.296Z,43.50
2019-04-07T00:36:34.170Z,43.83
2019-04-07T00:39:02.730Z,42.80
2019-04-07T00:41:31.205Z,44.17
2019-04-07T00:44:00.018Z,46.67
2019-04-07T00:46:28.890Z,43.20
2019-04-07T00:48:57.829Z,43.93
2019-04-07T00:51:26.745Z,41.20
2019-04-07T00:53:55.282Z,41.67
2019-04-07T00:56:23.720Z,43.30
2019-04-07T00:58:52.424Z,43.20
2019-04-07T01:01:20.848Z,41.63
2019-04-07T01:03:49.308Z,41.90
2019-04-07T01:06:17.819Z,40.87
2019-04-07T01:08:46.367Z,42.30
2019-04-07T01:11:14.837Z,45.87
2019-04-07T01:13:43.344Z,43.07
2019-04-07T01:16:11.952Z,41.90
2019-04-07T01:18:41.755Z,39.87
2019-04-07T01:21:10.209Z,42.53
2019-04-07T01:23:39.130Z,43.97
2019-04-07T01:26:07.634Z,44.77
2019-04-07T01:28:36.327Z,43.20
2019-04-07T01:31:05.517Z,45.67
2019-04-07T01:33:34.200Z,44.40
2019-04-07T01:36:02.668Z,41.97
2019-04-07T01:38:31.128Z,42.27
2019-04-07T01:41:04.824Z,44.80
2019-04-07T01:43:37.412Z,39.00
2019-04-07T01:46:16.448Z,38.43
2019-04-07T01:48:53.215Z,42.87
2019-04-07T01:51:29.113Z,45.17
2019-04-07T01:54:17.569Z,48.00
2019-04-07T01:57:04.513Z,44.53
2019-04-07T01:59:37.659Z,48.17
2019-04-07T02:02:08.113Z,45.40
2019-04-07T02:04:47.917Z,48.90
2019-04-07T02:07:20.654Z,47.47
2019-04-07T02:10:02.620Z,47.50
2019-04-07T02:12:50.757Z,46.17
2019-04-07T02:15:35.853Z,47.07
2019-04-07T02:18:06.065Z,48.97
2019-04-07T02:20:59.057Z,45.10
2019-04-07T02:23:35.493Z,48.37
2019-04-07T02:26:06.050Z,44.37
2019-04-07T02:28:52.605Z,46.30
2019-04-07T02:31:23.503Z,48.30
2019-04-07T02:33:54.505Z,45.67
2019-04-07T02:36:43.205Z,38.77
2019-04-07T02:39:13.456Z,42.47
2019-04-07T02:42:00.360Z,42.60
2019-04-07T02:44:31.489Z,39.40
2019-04-07T02:47:02.963Z,41.30
2019-04-07T02:49:45.738Z,41.43
2019-04-07T02:52:16.596Z,38.83
2019-04-07T02:54:46.873Z,39.67
2019-04-07T02:57:17.018Z,40.77
2019-04-07T02:59:47.912Z,39.80
2019-04-07T03:02:18.207Z,39.53
2019-04-07T03:04:48.331Z,40.00
2019-04-07T03:07:21.686Z,39.90
2019-04-07T03:09:51.966Z,42.20
2019-04-07T03:12:31.716Z,37.40
2019-04-07T03:15:11.202Z,35.13
2019-04-07T03:17:44.162Z,37.80
2019-04-07T03:20:17.226Z,36.97
2019-04-07T03:22:47.441Z,35.87
2019-04-07T03:25:18.455Z,38.20
2019-04-07T03:27:54.722Z,39.30
2019-04-07T03:30:37.587Z,39.17
2019-04-07T03:33:26.093Z,38.30
2019-04-07T03:36:16.091Z,41.00
2019-04-07T03:38:44.033Z,37.87
2019-04-07T03:41:33.239Z,37.23
2019-04-07T03:44:03.437Z,38.80
2019-04-07T03:46:41.072Z,38.30
2019-04-07T03:49:14.051Z,37.97
2019-04-07T03:51:53.176Z,37.00
2019-04-07T03:54:24.202Z,38.57
2019-04-07T03:57:03.338Z,37.90
2019-04-07T03:59:33.530Z,37.83
2019-04-07T04:02:06.751Z,36.10
2019-04-07T04:04:45.724Z,37.40
2019-04-07T04:07:25.544Z,35.90
2019-04-07T04:09:53.842Z,38.27
2019-04-07T04:12:39.209Z,37.90
2019-04-07T04:15:12.928Z,37.50
2019-04-07T04:17:41.424Z,38.43
2019-04-07T04:20:10.596Z,40.03
2019-04-07T04:22:39.664Z,30.77
2019-04-07T04:25:10.518Z,34.77
2019-04-07T04:27:39.218Z,33.37
2019-04-07T04:30:12.002Z,35.27
2019-04-07T04:32:41.407Z,34.47
2019-04-07T04:35:10.802Z,32.30
2019-04-07T04:37:44.171Z,33.27
2019-04-07T04:40:09.696Z,32.70
2019-04-07T04:42:38.172Z,31.53
2019-04-07T04:45:08.534Z,32.43
2019-04-07T04:47:37.682Z,32.07
2019-04-07T04:50:08.085Z,33.20
2019-04-07T04:52:36.865Z,30.03
2019-04-07T04:55:05.654Z,29.57
2019-04-07T04:57:35.153Z,30.20
2019-04-07T05:00:06.234Z,29.13
2019-04-07T05:02:34.843Z,30.70
2019-04-07T05:05:05.319Z,30.03
2019-04-07T05:07:48.858Z,31.13
2019-04-07T05:10:05.751Z,31.33
2019-04-07T05:12:34.239Z,31.60
2019-04-07T05:15:04.096Z,32.53
2019-04-07T05:17:32.715Z,32.03
2019-04-07T05:20:01.371Z,35.97
2019-04-07T05:22:29.896Z,31.00
2019-04-07T05:24:58.370Z,32.13
2019-04-07T05:27:27.843Z,28.80
2019-04-07T05:29:56.721Z,27.93
2019-04-07T05:32:25.271Z,26.77
2019-04-07T05:34:55.632Z,29.93
2019-04-07T05:37:26.128Z,31.23
2019-04-07T05:39:55.000Z,29.10
2019-04-07T05:42:23.557Z,29.07
2019-04-07T05:44:52.016Z,28.13
2019-04-07T05:47:21.288Z,30.67
2019-04-07T05:49:49.982Z,34.23
2019-04-07T05:52:19.189Z,36.77
2019-04-07T05:54:49.911Z,33.60
2019-04-07T05:57:18.610Z,37.20
2019-04-07T05:59:47.268Z,37.50
2019-04-07T06:02:15.729Z,35.50
2019-04-07T06:04:44.366Z,37.63
2019-04-07T06:07:14.831Z,36.27
2019-04-07T06:09:43.775Z,37.70
2019-04-07T06:12:12.830Z,41.37
2019-04-07T06:14:41.752Z,39.20
2019-04-07T06:17:10.851Z,39.97
2019-04-07T06:19:41.172Z,36.40
2019-04-07T06:22:10.081Z,38.90
2019-04-07T06:24:38.541Z,37.80
2019-04-07T06:27:07.093Z,37.00
2019-04-07T06:29:36.668Z,39.10
2019-04-07T06:32:07.265Z,38.17
2019-04-07T06:34:35.384Z,40.83
2019-04-07T06:37:04.438Z,36.70
2019-04-07T06:39:32.914Z,37.27
2019-04-07T06:42:02.477Z,37.40
2019-04-07T06:44:31.277Z,37.47
2019-04-07T06:47:04.673Z,36.43
2019-04-07T06:49:34.886Z,35.87
2019-04-07T06:52:04.998Z,34.43
2019-04-07T06:54:54.968Z,35.50
2019-04-07T06:57:28.312Z,35.70
2019-04-07T07:00:10.823Z,36.30
2019-04-07T07:03:02.886Z,38.60
2019-04-07T07:05:48.315Z,37.10
2019-04-07T07:08:43.254Z,35.03
2019-04-07T07:11:24.801Z,36.30
2019-04-07T07:13:45.068Z,37.50
2019-04-07T07:16:18.254Z,38.13
2019-04-07T07:19:05.244Z,40.57
2019-04-07T07:21:41.532Z,37.07
2019-04-07T07:24:10.438Z,38.40
2019-04-07T07:26:39.567Z,38.77
2019-04-07T07:29:08.354Z,37.80
2019-04-07T07:31:36.989Z,36.00
2019-04-07T07:34:05.526Z,41.03
2019-04-07T07:36:34.050Z,36.27
2019-04-07T07:39:08.291Z,34.27
2019-04-07T07:41:32.751Z,38.63
2019-04-07T07:44:03.595Z,36.60
2019-04-07T07:46:32.242Z,38.60
2019-04-07T07:49:02.069Z,34.30
2019-04-07T07:51:31.394Z,34.07
2019-04-07T07:54:01.832Z,35.20
2019-04-07T07:56:30.301Z,32.07
2019-04-07T07:59:00.215Z,31.73
2019-04-07T08:01:29.012Z,33.03
2019-04-07T08:03:58.654Z,33.80
2019-04-07T08:06:27.400Z,32.97
2019-04-07T08:09:07.621Z,30.57
2019-04-07T08:11:26.080Z,33.60
2019-04-07T08:13:55.403Z,31.43
2019-04-07T08:16:24.045Z,30.23
2019-04-07T08:18:52.536Z,32.00
2019-04-07T08:21:21.034Z,30.97
2019-04-07T08:23:52.460Z,31.70
2019-04-07T08:26:24.362Z,28.60
2019-04-07T08:28:51.398Z,28.03
2019-04-07T08:31:21.450Z,25.90
2019-04-07T08:33:51.586Z,27.97
2019-04-07T08:36:20.869Z,25.57
2019-04-07T08:38:51.798Z,25.83
2019-04-07T08:41:19.535Z,26.60
2019-04-07T08:43:53.280Z,24.57
2019-04-07T08:46:20.100Z,24.20
2019-04-07T08:48:51.773Z,25.33
2019-04-07T08:51:20.049Z,24.37
2019-04-07T08:53:48.543Z,23.97
2019-04-07T08:56:18.364Z,24.10
2019-04-07T08:58:46.889Z,23.90
2019-04-07T09:01:19.324Z,25.83
2019-04-07T09:03:47.332Z,25.60
2019-04-07T09:06:16.298Z,24.77
2019-04-07T09:08:44.994Z,22.63
2019-04-07T09:11:15.840Z,23.20
2019-04-07T09:13:46.553Z,25.37
2019-04-07T09:16:18.544Z,24.23
2019-04-07T09:19:01.098Z,23.70
2019-04-07T09:21:38.638Z,20.87
2019-04-07T09:24:30.624Z,24.33
2019-04-07T09:27:23.016Z,24.50
2019-04-07T09:29:52.371Z,21.20
2019-04-07T09:32:39.534Z,22.40
2019-04-07T09:35:10.221Z,22.70
2019-04-07T09:37:55.991Z,22.13
2019-04-07T09:40:29.120Z,21.37
2019-04-07T09:43:01.116Z,21.70
2019-04-07T09:45:47.939Z,21.87
2019-04-07T09:48:22.867Z,21.00
2019-04-07T09:50:55.431Z,20.93
2019-04-07T09:53:40.355Z,19.73
2019-04-07T09:56:16.343Z,19.80
2019-04-07T09:59:00.320Z,20.60
2019-04-07T10:01:40.130Z,19.10
2019-04-07T10:04:12.037Z,23.70
2019-04-07T10:06:51.224Z,22.00
2019-04-07T10:09:36.823Z,23.03
2019-04-07T10:12:24.821Z,20.47
2019-04-07T10:15:12.084Z,20.47
2019-04-07T10:17:52.380Z,19.23
2019-04-07T10:20:38.652Z,19.20
2019-04-07T10:23:17.826Z,17.20
2019-04-07T10:26:04.282Z,16.90
2019-04-07T10:28:36.707Z,20.80
2019-04-07T10:31:09.252Z,19.33
2019-04-07T10:33:51.897Z,16.70
2019-04-07T10:36:22.978Z,16.70
2019-04-07T10:39:11.045Z,20.60
2019-04-07T10:42:00.228Z,17.17
2019-04-07T10:44:34.098Z,19.67
2019-04-07T10:47:21.220Z,19.10
2019-04-07T10:50:05.159Z,19.40
2019-04-07T10:52:48.606Z,18.70
2019-04-07T10:55:27.679Z,21.27
2019-04-07T10:58:00.574Z,20.80
2019-04-07T11:00:48.804Z,18.93
2019-04-07T11:03:26.115Z,18.93
2019-04-07T11:06:03.937Z,17.20
2019-04-07T11:08:37.589Z,19.80
2019-04-07T11:11:13.525Z,19.67
2019-04-07T11:13:46.976Z,19.00
2019-04-07T11:16:23.268Z,19.63
2019-04-07T11:19:09.900Z,17.90
2019-04-07T11:21:58.034Z,20.30
2019-04-07T11:24:43.806Z,20.00
2019-04-07T11:27:14.797Z,20.87
2019-04-07T11:29:44.961Z,18.53
2019-04-07T11:32:30.526Z,19.13
2019-04-07T11:35:07.105Z,17.30
2019-04-07T11:37:45.875Z,17.70
2019-04-07T11:40:41.983Z,18.30
2019-04-07T11:43:20.804Z,19.23
2019-04-07T11:46:09.103Z,19.00
2019-04-07T11:48:39.403Z,17.00
2019-04-07T11:51:18.525Z,18.07
2019-04-07T11:53:57.774Z,18.13
2019-04-07T11:56:37.188Z,18.77
2019-04-07T11:59:10.268Z,19.77
2019-04-07T12:01:46.063Z,18.40
2019-04-07T12:04:26.749Z,19.50
2019-04-07T12:06:56.853Z,18.00
2019-04-07T12:09:26.978Z,17.27
2019-04-07T12:12:13.663Z,20.37
2019-04-07T12:14:47.172Z,18.93
2019-04-07T12:17:16.591Z,19.13
2019-04-07T12:19:47.314Z,16.50
2019-04-07T12:22:32.805Z,18.67
2019-04-07T12:25:04.445Z,19.17
2019-04-07T12:27:45.188Z,18.80
2019-04-07T12:30:16.495Z,18.03
2019-04-07T12:32:46.702Z,18.63
2019-04-07T12:35:32.985Z,19.13
2019-04-07T12:38:12.248Z,16.80
2019-04-07T12:40:41.063Z,18.23
2019-04-07T12:43:13.200Z,17.23
2019-04-07T12:45:59.362Z,17.43
2019-04-07T12:48:45.680Z,17.07
2019-04-07T12:51:17.614Z,18.23
2019-04-07T12:54:07.331Z,18.20
2019-04-07T12:56:47.796Z,18.20
2019-04-07T12:59:19.094Z,17.70
2019-04-07T13:01:55.123Z,15.70
2019-04-07T13:04:28.451Z,16.70
2019-04-07T13:06:58.832Z,17.17
2019-04-07T13:09:33.089Z,15.80
2019-04-07T13:12:22.690Z,15.97
2019-04-07T13:15:11.939Z,17.23
2019-04-07T13:17:59.618Z,13.83
2019-04-07T13:20:44.185Z,16.43
2019-04-07T13:23:17.678Z,14.93
2019-04-07T13:25:50.469Z,14.83
2019-04-07T13:28:26.047Z,14.63
2019-04-07T13:31:12.521Z,15.30
2019-04-07T13:34:01.284Z,15.40
2019-04-07T13:36:50.974Z,16.00
2019-04-07T13:39:22.377Z,16.27
2019-04-07T13:41:55.311Z,16.17
2019-04-07T13:44:27.153Z,15.10
2019-04-07T13:47:14.549Z,17.07
2019-04-07T13:49:57.405Z,14.90
2019-04-07T13:52:31.265Z,16.30
2019-04-07T13:55:05.100Z,16.07
2019-04-07T13:57:42.918Z,14.70
2019-04-07T14:00:26.307Z,16.53
2019-04-07T14:03:12.480Z,14.93
2019-04-07T14:05:58.998Z,15.93
2019-04-07T14:08:37.986Z,16.10
2019-04-07T14:11:23.429Z,15.40
2019-04-07T14:14:00.202Z,15.13
2019-04-07T14:16:48.690Z,15.70
2019-04-07T14:19:22.014Z,14.10
2019-04-07T14:21:57.974Z,14.43
2019-04-07T14:24:44.470Z,15.03
2019-04-07T14:27:23.774Z,16.30
2019-04-07T14:30:01.464Z,16.60
2019-04-07T14:32:50.637Z,15.53
2019-04-07T14:35:24.207Z,14.70
2019-04-07T14:37:57.239Z,14.30
2019-04-07T14:40:29.168Z,13.50
2019-04-07T14:43:17.746Z,15.20
2019-04-07T14:45:59.704Z,14.60
2019-04-07T14:48:33.560Z,16.17
2019-04-07T14:51:13.291Z,15.87
2019-04-07T14:54:00.022Z,16.00
2019-04-07T14:56:48.887Z,14.33
2019-04-07T14:59:36.496Z,14.27
2019-04-07T15:02:06.272Z,13.87
2019-04-07T15:04:39.992Z,13.67
2019-04-07T15:07:26.869Z,14.50
2019-04-07T15:10:09.541Z,14.00
2019-04-07T15:12:57.971Z,14.13
2019-04-07T15:15:26.822Z,14.90
2019-04-07T15:17:55.447Z,13.70
2019-04-07T15:20:24.960Z,14.00
2019-04-07T15:22:53.957Z,15.10
2019-04-07T15:25:22.672Z,13.50
2019-04-07T15:27:52.761Z,14.10
2019-04-07T15:30:22.199Z,12.80
2019-04-07T15:32:51.573Z,13.70
2019-04-07T15:35:20.210Z,13.40
2019-04-07T15:37:51.561Z,15.17
2019-04-07T15:40:19.281Z,14.50
2019-04-07T15:42:50.571Z,13.80
2019-04-07T15:45:20.097Z,12.87
2019-04-07T15:47:51.338Z,13.17
2019-04-07T15:50:18.577Z,13.93
2019-04-07T15:52:47.349Z,13.77
2019-04-07T15:55:16.742Z,14.07
2019-04-07T15:57:45.349Z,13.97
2019-04-07T16:00:13.889Z,13.83
2019-04-07T16:02:43.163Z,15.77
2019-04-07T16:05:12.490Z,14.40
2019-04-07T16:07:41.831Z,14.37
2019-04-07T16:10:11.006Z,14.23
2019-04-07T16:12:46.549Z,14.00
2019-04-07T16:15:10.846Z,13.50
2019-04-07T16:17:40.211Z,15.00
2019-04-07T16:20:20.685Z,13.47
2019-04-07T16:22:47.851Z,15.00
2019-04-07T16:25:18.361Z,16.90
2019-04-07T16:27:47.654Z,16.13
2019-04-07T16:30:19.155Z,15.37
2019-04-07T16:32:46.951Z,16.67
2019-04-07T16:35:18.389Z,15.83
2019-04-07T16:37:47.860Z,16.80
2019-04-07T16:40:16.747Z,16.23
2019-04-07T16:43:00.542Z,16.07
2019-04-07T16:45:17.803Z,17.43
2019-04-07T16:47:46.132Z,17.03
2019-04-07T16:50:18.109Z,17.53
2019-04-07T16:52:44.867Z,16.73
2019-04-07T16:55:34.883Z,17.03
2019-04-07T16:58:05.081Z,17.00
2019-04-07T17:00:34.418Z,17.30
2019-04-07T17:03:05.567Z,17.57
2019-04-07T17:05:34.229Z,19.53
2019-04-07T17:08:02.774Z,17.80
2019-04-07T17:10:34.147Z,19.23
2019-04-07T17:13:09.259Z,18.27
2019-04-07T17:15:32.786Z,17.53
2019-04-07T17:18:02.388Z,17.03
2019-04-07T17:20:33.681Z,17.20
2019-04-07T17:23:01.066Z,18.53
2019-04-07T17:25:32.807Z,18.87
2019-04-07T17:28:03.619Z,20.40
2019-04-07T17:30:30.142Z,21.40
2019-04-07T17:32:58.709Z,19.40
2019-04-07T17:35:28.502Z,20.53
2019-04-07T17:38:01.738Z,18.73
2019-04-07T17:40:30.820Z,19.70
2019-04-07T17:43:01.815Z,19.67
2019-04-07T17:45:41.299Z,20.70
2019-04-07T17:48:37.334Z,20.20
2019-04-07T17:51:05.300Z,20.40
2019-04-07T17:53:46.599Z,23.60
2019-04-07T17:56:22.223Z,19.77
2019-04-07T17:58:52.428Z,20.83
2019-04-07T18:01:30.019Z,22.03
2019-04-07T18:04:14.636Z,19.90
2019-04-07T18:07:03.499Z,19.20
2019-04-07T18:09:32.995Z,20.47
2019-04-07T18:12:14.342Z,21.27
2019-04-07T18:14:43.814Z,21.07
2019-04-07T18:17:13.898Z,22.63
2019-04-07T18:19:44.043Z,21.40
2019-04-07T18:22:22.112Z,22.83
2019-04-07T18:24:51.959Z,20.47
2019-04-07T18:27:34.140Z,21.50
2019-04-07T18:30:10.481Z,22.60
2019-04-07T18:32:53.448Z,19.97
2019-04-07T18:35:31.441Z,22.30
2019-04-07T18:38:11.063Z,22.10
2019-04-07T18:41:00.985Z,23.13
2019-04-07T18:43:31.780Z,22.83
2019-04-07T18:46:02.009Z,24.07
2019-04-07T18:48:34.545Z,22.30
2019-04-07T18:51:05.836Z,22.50
2019-04-07T18:53:38.549Z,23.17
2019-04-07T18:56:09.848Z,25.10
2019-04-07T18:58:48.926Z,23.43
2019-04-07T19:01:34.205Z,24.70
2019-04-07T19:04:10.439Z,21.53
2019-04-07T19:06:46.413Z,23.00
2019-04-07T19:09:18.939Z,24.83
2019-04-07T19:12:02.804Z,23.77
2019-04-07T19:14:40.117Z,24.90
2019-04-07T19:16:58.892Z,24.77
2019-04-07T19:19:38.085Z,22.43
2019-04-07T19:22:17.957Z,22.87
2019-04-07T19:24:52.157Z,24.27
2019-04-07T19:27:38.607Z,24.80
2019-04-07T19:30:13.220Z,23.80
2019-04-07T19:32:41.813Z,26.07
2019-04-07T19:35:23.785Z,22.77
2019-04-07T19:38:09.175Z,25.30
2019-04-07T19:40:40.151Z,21.80
2019-04-07T19:43:13.798Z,25.13
2019-04-07T19:45:48.967Z,26.10
2019-04-07T19:48:19.152Z,25.43
2019-04-07T19:50:50.846Z,24.30
2019-04-07T19:53:32.536Z,23.27
2019-04-07T19:56:02.484Z,23.73
2019-04-07T19:58:49.358Z,23.37
2019-04-07T20:01:31.589Z,21.83
2019-04-07T20:04:05.348Z,26.10
2019-04-07T20:06:36.283Z,25.90
2019-04-07T20:09:11.085Z,24.13
2019-04-07T20:11:46.050Z,24.77
2019-04-07T20:14:30.434Z,24.23
2019-04-07T20:17:04.176Z,26.10
2019-04-07T20:19:39.472Z,25.57
2019-04-07T20:22:23.140Z,26.30
2019-04-07T20:24:56.619Z,26.53
2019-04-07T20:27:28.773Z,27.50
2019-04-07T20:30:00.520Z,25.97
2019-04-07T20:32:33.453Z,28.07
2019-04-07T20:35:20.870Z,26.50
2019-04-07T20:38:06.365Z,27.63
2019-04-07T20:40:46.688Z,26.57
2019-04-07T20:43:17.703Z,28.10
2019-04-07T20:46:05.069Z,25.77
2019-04-07T20:48:36.788Z,26.67
2019-04-07T20:51:07.192Z,28.13
2019-04-07T20:53:43.135Z,25.70
2019-04-07T20:56:19.249Z,27.10
2019-04-07T20:59:04.597Z,27.30
2019-04-07T21:01:42.939Z,25.07
2019-04-07T21:04:17.980Z,29.17
2019-04-07T21:06:51.077Z,25.73
2019-04-07T21:09:23.894Z,27.30
2019-04-07T21:12:00.874Z,26.87
2019-04-07T21:14:47.373Z,26.60
2019-04-07T21:17:17.548Z,28.67
2019-04-07T21:20:05.392Z,27.63
2019-04-07T21:22:50.816Z,27.00
2019-04-07T21:25:25.337Z,28.67
2019-04-07T21:28:06.188Z,27.67
2019-04-07T21:30:36.786Z,30.23
2019-04-07T21:33:09.630Z,30.77
2019-04-07T21:35:56.204Z,30.53
2019-04-07T21:38:41.395Z,26.97
2019-04-07T21:41:13.373Z,28.47
2019-04-07T21:43:59.672Z,29.67
2019-04-07T21:46:30.423Z,29.33
2019-04-07T21:49:17.815Z,28.70
2019-04-07T21:51:53.664Z,29.60
2019-04-07T21:54:23.777Z,30.17
2019-04-07T21:57:09.894Z,27.97
2019-04-07T21:59:40.213Z,27.63
2019-04-07T22:02:13.659Z,28.80
2019-04-07T22:04:57.040Z,27.03
2019-04-07T22:07:33.141Z,30.10
2019-04-07T22:10:01.645Z,31.30
2019-04-07T22:12:30.720Z,29.70
2019-04-07T22:15:00.265Z,31.17
2019-04-07T22:17:32.615Z,31.77
2019-04-07T22:19:59.023Z,30.00
2019-04-07T22:22:27.728Z,29.70
2019-04-07T22:24:56.153Z,29.37
2019-04-07T22:27:27.184Z,29.87
2019-04-07T22:29:54.841Z,28.80
2019-04-07T22:32:24.354Z,30.70
2019-04-07T22:34:52.956Z,28.77
2019-04-07T22:37:22.477Z,27.90
2019-04-07T22:39:52.712Z,25.17
2019-04-07T22:42:21.274Z,30.70
2019-04-07T22:44:53.278Z,29.87
2019-04-07T22:47:22.294Z,27.00
2019-04-07T22:49:50.635Z,30.00
2019-04-07T22:52:19.192Z,31.23
2019-04-07T22:54:47.818Z,29.33
2019-04-07T22:57:16.380Z,29.37
2019-04-07T22:59:44.864Z,27.43
2019-04-07T23:02:13.723Z,29.97
2019-04-07T23:04:42.671Z,28.80
2019-04-07T23:07:11.698Z,31.20
2019-04-07T23:09:41.138Z,30.07
2019-04-07T23:12:10.616Z,29.37
2019-04-07T23:14:40.149Z,32.83
2019-04-07T23:17:08.738Z,30.37
2019-04-07T23:19:37.830Z,30.43
2019-04-07T23:22:06.474Z,31.00
2019-04-07T23:24:35.035Z,29.20
2019-04-07T23:27:04.133Z,29.57
2019-04-07T23:29:32.751Z,31.47
2019-04-07T23:32:01.834Z,27.20
2019-04-07T23:34:31.105Z,29.43
2019-04-07T23:36:59.799Z,27.07
2019-04-07T23:39:29.186Z,28.53
2019-04-07T23:41:58.612Z,26.13
2019-04-07T23:44:27.686Z,29.10
2019-04-07T23:46:57.117Z,27.27
2019-04-07T23:49:26.055Z,28.37
2019-04-07T23:51:55.299Z,30.87
2019-04-07T23:54:24.787Z,29.97
2019-04-07T23:56:54.079Z,28.10
2019-04-07T23:59:22.863Z,27.47
